createdAt,value
2023-05-21T00:01:57.830Z,15.06
2023-05-21T00:05:03.657Z,15.17
2023-05-21T00:08:06.894Z,15.10
2023-05-21T00:11:08.960Z,15.08
2023-05-21T00:14:10.750Z,15.17
2023-05-21T00:17:12.804Z,15.11
2023-05-21T00:20:18.027Z,14.94
2023-05-21T00:23:20.148Z,14.92
2023-05-21T00:26:22.342Z,14.96
2023-05-21T00:29:27.038Z,14.93
2023-05-21T00:32:32.027Z,14.91
2023-05-21T00:35:37.810Z,14.87
2023-05-21T00:38:39.784Z,14.91
2023-05-21T00:41:41.866Z,14.78
2023-05-21T00:44:43.762Z,14.77
2023-05-21T00:47:46.761Z,14.68
2023-05-21T00:50:50.482Z,14.71
2023-05-21T00:53:53.136Z,14.65
2023-05-21T00:56:55.937Z,14.61
2023-05-21T00:59:57.734Z,14.65
2023-05-21T01:03:01.157Z,14.53
2023-05-21T01:06:04.895Z,14.52
2023-05-21T01:09:08.982Z,14.61
2023-05-21T01:12:11.640Z,14.59
2023-05-21T01:15:14.036Z,14.48
2023-05-21T01:18:16.103Z,14.48
2023-05-21T01:21:21.485Z,14.43
2023-05-21T01:24:29.539Z,14.48
2023-05-21T01:27:32.965Z,14.50
2023-05-21T01:30:36.389Z,14.33
2023-05-21T01:33:47.616Z,14.21
2023-05-21T01:37:00.113Z,14.25
2023-05-21T01:40:10.720Z,14.20
2023-05-21T01:43:15.196Z,14.24
2023-05-21T01:46:19.942Z,14.16
2023-05-21T01:49:22.802Z,14.29
2023-05-21T01:52:24.891Z,14.37
2023-05-21T01:55:30.972Z,14.24
2023-05-21T01:58:33.061Z,14.34
2023-05-21T02:01:35.155Z,14.33
2023-05-21T02:04:37.392Z,14.26
2023-05-21T02:07:39.162Z,14.22
2023-05-21T02:10:43.766Z,14.25
2023-05-21T02:13:47.786Z,14.23
2023-05-21T02:16:50.329Z,14.21
2023-05-21T02:19:54.939Z,14.16
2023-05-21T02:22:56.705Z,14.16
2023-05-21T02:26:02.161Z,14.10
2023-05-21T02:29:04.208Z,14.03
2023-05-21T02:32:06.982Z,13.96
2023-05-21T02:35:10.235Z,13.93
2023-05-21T02:38:12.030Z,13.92
2023-05-21T02:41:15.838Z,13.94
2023-05-21T02:44:19.717Z,14.03
2023-05-21T02:47:22.867Z,13.93
2023-05-21T02:50:28.095Z,13.93
2023-05-21T02:53:29.835Z,13.87
2023-05-21T02:56:34.578Z,13.81
2023-05-21T02:59:36.624Z,13.85
2023-05-21T03:02:38.926Z,13.83
2023-05-21T03:05:41.019Z,13.87
2023-05-21T03:08:43.292Z,13.87
2023-05-21T03:11:49.333Z,13.91
2023-05-21T03:14:51.100Z,13.92
2023-05-21T03:18:01.808Z,13.82
2023-05-21T03:21:04.869Z,13.90
2023-05-21T03:24:07.516Z,13.77
2023-05-21T03:27:10.968Z,13.74
2023-05-21T03:30:13.534Z,13.64
2023-05-21T03:33:15.908Z,13.74
2023-05-21T03:36:18.359Z,13.71
2023-05-21T03:39:22.393Z,13.66
2023-05-21T03:42:26.295Z,13.73
2023-05-21T03:45:30.843Z,13.70
2023-05-21T03:48:34.874Z,13.66
2023-05-21T03:51:39.126Z,13.74
2023-05-21T03:54:41.113Z,13.75
2023-05-21T03:57:44.427Z,13.69
2023-05-21T04:00:47.627Z,13.69
2023-05-21T04:03:49.734Z,13.65
2023-05-21T04:06:51.914Z,13.62
2023-05-21T04:09:56.439Z,13.68
2023-05-21T04:13:00.069Z,13.64
2023-05-21T04:16:04.518Z,13.73
2023-05-21T04:19:07.009Z,13.67
2023-05-21T04:22:10.930Z,13.69
2023-05-21T04:25:13.332Z,13.67
2023-05-21T04:28:16.468Z,13.64
2023-05-21T04:31:18.414Z,13.69
2023-05-21T04:34:20.527Z,13.81
2023-05-21T04:37:23.426Z,13.83
2023-05-21T04:40:25.181Z,13.82
2023-05-21T04:43:28.302Z,13.68
2023-05-21T04:46:32.668Z,13.76
2023-05-21T04:49:34.901Z,13.79
2023-05-21T04:52:37.223Z,13.83
2023-05-21T04:55:40.089Z,13.94
2023-05-21T04:58:43.808Z,13.91
2023-05-21T05:01:46.515Z,14.04
2023-05-21T05:04:48.300Z,13.96
2023-05-21T05:07:50.560Z,13.97
2023-05-21T05:10:53.018Z,14.11
2023-05-21T05:13:56.844Z,14.08
2023-05-21T05:16:59.298Z,14.18
2023-05-21T05:20:01.722Z,14.16
2023-05-21T05:23:05.871Z,14.31
2023-05-21T05:26:08.113Z,14.37
2023-05-21T05:29:11.561Z,14.50
2023-05-21T05:32:13.910Z,14.50
2023-05-21T05:35:15.705Z,14.67
2023-05-21T05:38:18.212Z,14.70
2023-05-21T05:41:20.001Z,14.82
2023-05-21T05:44:23.151Z,14.75
2023-05-21T05:47:25.146Z,14.78
2023-05-21T05:50:27.262Z,14.78
2023-05-21T05:53:29.031Z,14.81
2023-05-21T05:56:31.041Z,14.94
2023-05-21T05:59:35.968Z,15.02
2023-05-21T06:02:38.092Z,15.11
2023-05-21T06:05:40.590Z,15.13
2023-05-21T06:08:43.025Z,15.16
2023-05-21T06:11:46.130Z,15.20
2023-05-21T06:14:50.722Z,15.21
2023-05-21T06:17:52.468Z,15.19
2023-05-21T06:20:54.284Z,15.23
2023-05-21T06:24:04.615Z,15.29
2023-05-21T06:27:06.558Z,15.39
2023-05-21T06:30:12.831Z,15.45
2023-05-21T06:33:14.811Z,15.48
2023-05-21T06:36:19.934Z,15.49
2023-05-21T06:39:21.970Z,15.43
2023-05-21T06:42:23.787Z,15.52
2023-05-21T06:45:27.991Z,15.42
2023-05-21T06:48:32.480Z,15.40
2023-05-21T06:51:35.952Z,15.41
2023-05-21T06:54:38.025Z,15.43
2023-05-21T06:57:40.653Z,15.49
2023-05-21T07:00:45.226Z,15.55
2023-05-21T07:03:49.223Z,15.47
2023-05-21T07:06:51.252Z,15.51
2023-05-21T07:09:53.882Z,15.66
2023-05-21T07:12:55.623Z,15.75
2023-05-21T07:16:00.887Z,15.80
2023-05-21T07:19:03.270Z,15.93
2023-05-21T07:22:06.465Z,16.14
2023-05-21T07:25:12.049Z,16.24
2023-05-21T07:28:14.507Z,16.30
2023-05-21T07:31:17.904Z,16.29
2023-05-21T07:34:22.735Z,16.44
2023-05-21T07:37:24.922Z,16.57
2023-05-21T07:40:26.698Z,16.62
2023-05-21T07:43:28.773Z,16.54
2023-05-21T07:46:32.891Z,16.69
2023-05-21T07:49:35.647Z,16.80
2023-05-21T07:52:37.456Z,16.81
2023-05-21T07:55:41.151Z,16.84
2023-05-21T07:58:43.232Z,16.78
2023-05-21T08:01:48.727Z,16.97
2023-05-21T08:04:50.815Z,17.13
2023-05-21T08:07:55.415Z,17.15
2023-05-21T08:10:57.965Z,17.12
2023-05-21T08:14:03.548Z,17.20
2023-05-21T08:17:09.720Z,17.38
2023-05-21T08:20:12.535Z,17.41
2023-05-21T08:23:14.504Z,17.55
2023-05-21T08:26:16.655Z,17.66
2023-05-21T08:29:18.799Z,17.75
2023-05-21T08:32:23.152Z,17.81
2023-05-21T08:35:27.744Z,18.01
2023-05-21T08:38:30.374Z,18.05
2023-05-21T08:41:37.736Z,18.05
2023-05-21T08:44:48.375Z,18.10
2023-05-21T08:47:56.007Z,18.24
2023-05-21T08:50:59.353Z,18.29
2023-05-21T08:54:04.819Z,18.38
2023-05-21T08:57:09.553Z,18.40
2023-05-21T09:00:12.248Z,18.43
2023-05-21T09:03:16.450Z,18.44
2023-05-21T09:06:18.472Z,18.57
2023-05-21T09:09:27.114Z,18.64
2023-05-21T09:12:29.675Z,18.75
2023-05-21T09:15:33.520Z,18.79
2023-05-21T09:18:36.777Z,18.93
2023-05-21T09:21:39.902Z,19.07
2023-05-21T09:24:41.987Z,19.08
2023-05-21T09:27:44.049Z,19.15
2023-05-21T09:30:46.284Z,19.30
2023-05-21T09:33:50.351Z,19.36
2023-05-21T09:36:52.127Z,19.41
2023-05-21T09:39:54.665Z,19.48
2023-05-21T09:42:59.648Z,19.58
2023-05-21T09:46:02.239Z,19.55
2023-05-21T09:49:21.987Z,19.58
2023-05-21T09:52:24.911Z,19.77
2023-05-21T09:55:26.988Z,19.67
2023-05-21T09:58:30.861Z,19.91
2023-05-21T10:01:35.965Z,20.25
2023-05-21T10:04:40.856Z,20.16
2023-05-21T10:07:44.738Z,20.28
2023-05-21T10:10:49.231Z,20.22
2023-05-21T10:13:57.847Z,20.24
2023-05-21T10:17:07.826Z,20.35
2023-05-21T10:20:14.700Z,20.53
2023-05-21T10:23:17.661Z,20.51
2023-05-21T10:26:20.141Z,20.54
2023-05-21T10:29:23.722Z,20.77
2023-05-21T10:32:27.502Z,21.06
2023-05-21T10:35:35.175Z,20.95
2023-05-21T10:38:39.360Z,21.10
2023-05-21T10:41:53.772Z,21.28
2023-05-21T10:45:11.317Z,21.11
2023-05-21T10:48:28.260Z,21.04
2023-05-21T10:51:45.252Z,21.21
2023-05-21T10:55:01.187Z,21.25
2023-05-21T10:58:30.164Z,21.53
2023-05-21T11:01:35.811Z,21.40
2023-05-21T11:04:38.220Z,21.46
2023-05-21T11:07:59.912Z,21.53
2023-05-21T11:14:29.067Z,21.56
2023-05-21T11:17:38.988Z,21.75
2023-05-21T11:20:50.228Z,21.72
2023-05-21T11:23:59.451Z,21.71
2023-05-21T11:27:02.898Z,21.74
2023-05-21T11:30:06.869Z,21.94
2023-05-21T11:33:18.556Z,21.77
2023-05-21T11:36:20.372Z,21.79
2023-05-21T11:39:26.682Z,21.83
2023-05-21T11:42:31.432Z,21.91
2023-05-21T11:45:33.623Z,22.00
2023-05-21T11:48:37.838Z,22.05
2023-05-21T11:51:40.519Z,22.34
2023-05-21T11:54:45.640Z,22.32
2023-05-21T11:57:48.226Z,22.34
2023-05-21T12:00:51.240Z,22.55
2023-05-21T12:03:53.831Z,22.69
2023-05-21T12:06:55.937Z,22.81
2023-05-21T12:10:00.676Z,22.71
2023-05-21T12:13:03.534Z,22.64
2023-05-21T12:16:08.204Z,22.79
2023-05-21T12:19:14.419Z,22.80
2023-05-21T12:22:17.300Z,22.92
2023-05-21T12:25:21.312Z,22.83
2023-05-21T12:28:24.178Z,22.75
2023-05-21T12:31:30.107Z,22.83
2023-05-21T12:34:40.539Z,22.73
2023-05-21T12:37:43.712Z,22.72
2023-05-21T12:40:48.212Z,22.86
2023-05-21T12:43:50.768Z,23.07
2023-05-21T12:46:53.290Z,22.95
2023-05-21T12:49:57.909Z,23.10
2023-05-21T12:53:03.783Z,23.37
2023-05-21T12:56:11.384Z,23.32
2023-05-21T12:59:16.269Z,23.10
2023-05-21T13:02:23.860Z,23.10
2023-05-21T13:05:26.191Z,23.05
2023-05-21T13:08:28.492Z,23.06
2023-05-21T13:11:34.090Z,23.12
2023-05-21T13:14:37.097Z,23.25
2023-05-21T13:17:38.969Z,23.31
2023-05-21T13:20:40.763Z,23.41
2023-05-21T13:23:42.533Z,23.37
2023-05-21T13:26:47.158Z,23.47
2023-05-21T13:29:49.666Z,23.37
2023-05-21T13:32:54.051Z,23.31
2023-05-21T13:35:56.224Z,23.22
2023-05-21T13:38:58.716Z,23.03
2023-05-21T13:42:04.682Z,23.02
2023-05-21T13:45:08.380Z,22.99
2023-05-21T13:48:11.581Z,22.72
2023-05-21T13:51:19.865Z,22.71
2023-05-21T13:54:29.631Z,22.54
2023-05-21T13:57:33.179Z,22.56
2023-05-21T14:00:35.044Z,22.39
2023-05-21T14:03:37.311Z,22.37
2023-05-21T14:06:39.619Z,22.34
2023-05-21T14:09:42.478Z,22.67
2023-05-21T14:12:46.179Z,22.94
2023-05-21T14:15:48.318Z,23.16
2023-05-21T14:18:50.357Z,23.23
2023-05-21T14:21:53.367Z,23.21
2023-05-21T14:24:55.454Z,23.43
2023-05-21T14:27:58.807Z,23.42
2023-05-21T14:31:02.842Z,23.64
2023-05-21T14:34:04.713Z,23.60
2023-05-21T14:37:07.153Z,23.71
2023-05-21T14:40:12.067Z,23.69
2023-05-21T14:43:15.648Z,23.89
2023-05-21T14:46:17.694Z,23.89
2023-05-21T14:49:21.972Z,24.01
2023-05-21T14:52:24.013Z,24.04
2023-05-21T14:55:26.380Z,24.17
2023-05-21T14:58:32.014Z,23.96
2023-05-21T15:01:36.958Z,24.00
2023-05-21T15:04:41.346Z,23.90
2023-05-21T15:07:43.171Z,23.71
2023-05-21T15:10:45.951Z,24.06
2023-05-21T15:13:49.551Z,24.22
2023-05-21T15:16:54.113Z,24.40
2023-05-21T15:19:56.003Z,24.53
2023-05-21T15:23:12.352Z,24.49
2023-05-21T15:26:22.328Z,24.62
2023-05-21T15:29:25.918Z,24.64
2023-05-21T15:32:27.814Z,24.91
2023-05-21T15:35:29.986Z,24.96
2023-05-21T15:38:32.390Z,25.19
2023-05-21T15:41:36.019Z,25.07
2023-05-21T15:44:41.679Z,25.40
2023-05-21T15:47:45.158Z,25.45
2023-05-21T15:50:47.025Z,25.68
2023-05-21T15:53:49.095Z,25.43
2023-05-21T15:56:51.041Z,25.45
2023-05-21T15:59:56.435Z,25.67
2023-05-21T16:02:58.675Z,25.98
2023-05-21T16:06:03.558Z,26.14
2023-05-21T16:09:06.962Z,26.26
2023-05-21T16:12:08.884Z,26.49
2023-05-21T16:15:13.333Z,26.50
2023-05-21T16:18:16.114Z,26.46
2023-05-21T16:21:18.690Z,26.64
2023-05-21T16:24:21.306Z,26.54
2023-05-21T16:27:23.551Z,25.61
2023-05-21T16:30:28.440Z,25.77
2023-05-21T16:33:32.536Z,26.27
2023-05-21T16:36:37.518Z,26.35
2023-05-21T16:39:40.886Z,26.56
2023-05-21T16:42:43.146Z,26.60
2023-05-21T16:45:48.398Z,26.88
2023-05-21T16:48:59.806Z,26.88
2023-05-21T16:52:02.612Z,26.84
2023-05-21T16:55:05.782Z,27.01
2023-05-21T16:58:08.426Z,27.08
2023-05-21T17:01:16.828Z,27.28
2023-05-21T17:04:20.381Z,26.86
2023-05-21T17:07:23.337Z,26.90
2023-05-21T17:10:25.924Z,26.78
2023-05-21T17:13:29.338Z,26.61
2023-05-21T17:16:33.461Z,26.79
2023-05-21T17:19:36.826Z,26.63
2023-05-21T17:22:40.879Z,26.89
2023-05-21T17:25:43.867Z,27.03
2023-05-21T17:28:47.372Z,26.83
2023-05-21T17:31:51.588Z,26.78
2023-05-21T17:34:57.439Z,26.70
2023-05-21T17:38:01.193Z,26.29
2023-05-21T17:41:04.126Z,26.42
2023-05-21T17:44:06.645Z,26.21
2023-05-21T17:47:13.738Z,26.31
2023-05-21T17:50:17.417Z,26.25
2023-05-21T17:53:20.975Z,26.07
2023-05-21T17:56:26.249Z,25.95
2023-05-21T17:59:29.301Z,25.62
2023-05-21T18:02:35.322Z,25.29
2023-05-21T18:05:38.963Z,24.81
2023-05-21T18:08:44.430Z,24.60
2023-05-21T18:11:47.119Z,24.41
2023-05-21T18:14:49.697Z,24.44
2023-05-21T18:17:54.848Z,24.03
2023-05-21T18:20:58.353Z,23.64
2023-05-21T18:24:01.823Z,23.25
2023-05-21T18:27:04.859Z,22.90
2023-05-21T18:30:08.858Z,22.53
2023-05-21T18:33:15.523Z,22.19
2023-05-21T18:36:18.871Z,22.06
2023-05-21T18:39:21.436Z,21.90
2023-05-21T18:42:24.300Z,21.85
2023-05-21T18:45:27.985Z,21.68
2023-05-21T18:48:32.004Z,21.85
2023-05-21T18:51:35.677Z,21.74
2023-05-21T18:54:38.409Z,21.64
2023-05-21T18:57:40.968Z,21.56
2023-05-21T19:00:43.812Z,21.54
2023-05-21T19:03:47.802Z,21.53
2023-05-21T19:06:51.440Z,21.56
2023-05-21T19:09:56.966Z,21.29
2023-05-21T19:12:59.765Z,21.22
2023-05-21T19:16:02.608Z,21.08
2023-05-21T19:19:06.655Z,21.07
2023-05-21T19:22:09.349Z,21.03
2023-05-21T19:25:11.905Z,20.95
2023-05-21T19:28:14.945Z,20.65
2023-05-21T19:31:18.862Z,20.65
2023-05-21T19:34:24.413Z,20.64
2023-05-21T19:37:28.172Z,20.31
2023-05-21T19:40:32.152Z,20.29
2023-05-21T19:43:34.749Z,20.39
2023-05-21T19:46:37.633Z,20.31
2023-05-21T19:49:41.649Z,20.06
2023-05-21T19:52:44.927Z,20.01
2023-05-21T19:55:51.741Z,20.08
2023-05-21T19:58:54.625Z,20.08
2023-05-21T20:01:59.403Z,20.11
2023-05-21T20:05:04.128Z,20.01
2023-05-21T20:08:06.732Z,19.84
2023-05-21T20:11:09.816Z,19.89
2023-05-21T20:14:12.558Z,19.90
2023-05-21T20:17:15.860Z,19.81
2023-05-21T20:20:20.396Z,19.67
2023-05-21T20:23:23.809Z,19.64
2023-05-21T20:26:26.998Z,19.52
2023-05-21T20:29:29.576Z,19.54
2023-05-21T20:32:32.129Z,19.39
2023-05-21T20:35:38.879Z,19.34
2023-05-21T20:38:41.560Z,19.22
2023-05-21T20:41:44.004Z,19.12
2023-05-21T20:44:49.398Z,19.12
2023-05-21T20:47:51.800Z,19.06
2023-05-21T20:50:56.006Z,19.18
2023-05-21T20:53:58.823Z,19.06
2023-05-21T20:57:04.134Z,18.83
2023-05-21T21:00:07.494Z,18.93
2023-05-21T21:03:09.513Z,19.00
2023-05-21T21:06:13.272Z,18.96
2023-05-21T21:09:15.043Z,18.99
2023-05-21T21:15:22.500Z,18.65
2023-05-21T21:18:24.532Z,18.68
2023-05-21T21:21:28.334Z,18.78
2023-05-21T21:24:34.169Z,18.71
2023-05-21T21:27:38.516Z,18.62
2023-05-21T21:30:41.168Z,18.67
2023-05-21T21:33:45.508Z,18.66
2023-05-21T21:36:48.993Z,18.67
2023-05-21T21:39:51.753Z,18.61
2023-05-21T21:42:53.565Z,18.41
2023-05-21T21:45:56.022Z,18.35
2023-05-21T21:48:58.550Z,18.14
2023-05-21T21:52:02.090Z,18.15
2023-05-21T21:55:07.643Z,18.08
2023-05-21T21:58:09.425Z,18.04
2023-05-21T22:01:11.302Z,18.12
2023-05-21T22:04:13.461Z,18.00
2023-05-21T22:07:17.153Z,17.83
2023-05-21T22:10:20.190Z,17.78
2023-05-21T22:13:24.109Z,17.77
2023-05-21T22:16:27.358Z,17.79
2023-05-21T22:19:31.750Z,17.81
2023-05-21T22:22:38.389Z,17.83
2023-05-21T22:25:41.745Z,17.91
2023-05-21T22:28:43.462Z,17.98
2023-05-21T22:31:47.433Z,17.94
2023-05-21T22:34:49.361Z,17.95
2023-05-21T22:37:52.861Z,17.96
2023-05-21T22:40:54.649Z,17.89
2023-05-21T22:43:56.716Z,17.86
2023-05-21T22:46:58.772Z,17.82
2023-05-21T22:50:00.897Z,17.80
2023-05-21T22:53:04.707Z,17.82
2023-05-21T22:56:09.097Z,17.74
2023-05-21T22:59:10.919Z,17.66
2023-05-21T23:02:13.441Z,17.66
2023-05-21T23:05:15.782Z,17.67
2023-05-21T23:08:20.413Z,17.70
2023-05-21T23:11:22.214Z,17.70
2023-05-21T23:14:24.969Z,17.66
2023-05-21T23:17:27.403Z,17.78
2023-05-21T23:20:29.267Z,17.83
2023-05-21T23:23:32.789Z,17.86
2023-05-21T23:26:34.726Z,17.85
2023-05-21T23:29:37.317Z,17.86
2023-05-21T23:32:39.259Z,17.88
2023-05-21T23:35:41.066Z,17.91
2023-05-21T23:38:44.174Z,17.81
2023-05-21T23:41:46.524Z,17.74
2023-05-21T23:44:48.813Z,17.69
2023-05-21T23:47:50.649Z,17.60
2023-05-21T23:50:53.278Z,17.44
2023-05-21T23:53:56.641Z,17.49
2023-05-21T23:56:58.363Z,17.55
